sensor_id;sensor_type;location;lat;lon;timestamp;temperature;humidity
65462;DHT22;53236;43.666;18.444;2023-02-26T00:01:21;8.00;99.90
65462;DHT22;53236;43.666;18.444;2023-02-26T00:03:52;8.10;99.90
65462;DHT22;53236;43.666;18.444;2023-02-26T00:06:18;8.20;99.90
65462;DHT22;53236;43.666;18.444;2023-02-26T00:08:44;8.30;99.90
65462;DHT22;53236;43.666;18.444;2023-02-26T00:11:10;8.30;99.90
65462;DHT22;53236;43.666;18.444;2023-02-26T00:13:38;8.30;99.90
65462;DHT22;53236;43.666;18.444;2023-02-26T00:18:50;8.30;99.90
65462;DHT22;53236;43.666;18.444;2023-02-26T00:21:19;8.20;99.90
65462;DHT22;53236;43.666;18.444;2023-02-26T00:23:45;8.10;99.90
65462;DHT22;53236;43.666;18.444;2023-02-26T00:26:11;8.00;99.90
65462;DHT22;53236;43.666;18.444;2023-02-26T00:28:37;7.90;99.90
65462;DHT22;53236;43.666;18.444;2023-02-26T00:31:03;8.00;99.90
65462;DHT22;53236;43.666;18.444;2023-02-26T00:33:30;8.10;99.90
65462;DHT22;53236;43.666;18.444;2023-02-26T00:38:44;8.10;99.90
65462;DHT22;53236;43.666;18.444;2023-02-26T00:41:14;8.10;99.90
65462;DHT22;53236;43.666;18.444;2023-02-26T00:43:40;8.10;99.90
65462;DHT22;53236;43.666;18.444;2023-02-26T00:46:24;8.10;99.90
65462;DHT22;53236;43.666;18.444;2023-02-26T00:49:09;8.00;99.90
65462;DHT22;53236;43.666;18.444;2023-02-26T00:51:58;8.00;99.90
65462;DHT22;53236;43.666;18.444;2023-02-26T00:54:28;8.00;99.90
65462;DHT22;53236;43.666;18.444;2023-02-26T00:56:55;8.10;99.90
65462;DHT22;53236;43.666;18.444;2023-02-26T00:59:22;8.10;99.90
65462;DHT22;53236;43.666;18.444;2023-02-26T01:01:50;8.10;99.90
65462;DHT22;53236;43.666;18.444;2023-02-26T01:04:17;8.20;99.90
65462;DHT22;53236;43.666;18.444;2023-02-26T01:06:46;8.10;99.90
65462;DHT22;53236;43.666;18.444;2023-02-26T01:11:41;8.20;99.90
65462;DHT22;53236;43.666;18.444;2023-02-26T01:14:07;8.10;99.90
65462;DHT22;53236;43.666;18.444;2023-02-26T01:16:58;8.20;99.90
65462;DHT22;53236;43.666;18.444;2023-02-26T01:22:32;8.40;99.90
65462;DHT22;53236;43.666;18.444;2023-02-26T01:25:05;8.50;99.90
65462;DHT22;53236;43.666;18.444;2023-02-26T01:27:31;8.50;99.90
65462;DHT22;53236;43.666;18.444;2023-02-26T01:29:57;8.40;99.90
65462;DHT22;53236;43.666;18.444;2023-02-26T01:32:45;8.50;99.90
65462;DHT22;53236;43.666;18.444;2023-02-26T01:35:28;8.30;99.90
65462;DHT22;53236;43.666;18.444;2023-02-26T01:44:04;8.10;99.90
65462;DHT22;53236;43.666;18.444;2023-02-26T01:49:36;8.00;99.90
65462;DHT22;53236;43.666;18.444;2023-02-26T01:54:52;7.80;99.90
65462;DHT22;53236;43.666;18.444;2023-02-26T01:57:20;7.80;99.90
65462;DHT22;53236;43.666;18.444;2023-02-26T01:59:49;7.80;99.90
65462;DHT22;53236;43.666;18.444;2023-02-26T02:02:20;7.80;99.90
65462;DHT22;53236;43.666;18.444;2023-02-26T02:04:47;7.80;99.90
65462;DHT22;53236;43.666;18.444;2023-02-26T02:07:15;7.80;99.90
65462;DHT22;53236;43.666;18.444;2023-02-26T02:09:40;7.80;99.90
65462;DHT22;53236;43.666;18.444;2023-02-26T02:17:33;7.80;99.90
65462;DHT22;53236;43.666;18.444;2023-02-26T02:33:24;7.60;99.90
65462;DHT22;53236;43.666;18.444;2023-02-26T02:36:00;7.70;99.90
65462;DHT22;53236;43.666;18.444;2023-02-26T02:38:47;7.60;99.90
65462;DHT22;53236;43.666;18.444;2023-02-26T02:41:20;7.80;99.90
65462;DHT22;53236;43.666;18.444;2023-02-26T02:43:48;7.80;99.90
65462;DHT22;53236;43.666;18.444;2023-02-26T02:46:23;7.70;99.90
65462;DHT22;53236;43.666;18.444;2023-02-26T02:49:02;7.60;99.90
65462;DHT22;53236;43.666;18.444;2023-02-26T02:51:44;7.60;99.90
65462;DHT22;53236;43.666;18.444;2023-02-26T02:54:16;7.60;99.90
65462;DHT22;53236;43.666;18.444;2023-02-26T02:57:03;7.60;99.90
65462;DHT22;53236;43.666;18.444;2023-02-26T02:59:31;7.50;99.90
65462;DHT22;53236;43.666;18.444;2023-02-26T03:04:38;7.50;99.90
65462;DHT22;53236;43.666;18.444;2023-02-26T03:07:06;7.50;99.90
65462;DHT22;53236;43.666;18.444;2023-02-26T03:09:32;7.50;99.90
65462;DHT22;53236;43.666;18.444;2023-02-26T03:11:58;7.50;99.90
65462;DHT22;53236;43.666;18.444;2023-02-26T03:14:25;7.50;99.90
65462;DHT22;53236;43.666;18.444;2023-02-26T03:27:54;7.30;99.90
65462;DHT22;53236;43.666;18.444;2023-02-26T03:33:02;7.20;99.90
65462;DHT22;53236;43.666;18.444;2023-02-26T03:38:46;7.30;99.90
65462;DHT22;53236;43.666;18.444;2023-02-26T03:41:32;7.30;99.90
65462;DHT22;53236;43.666;18.444;2023-02-26T03:44:03;7.20;99.90
65462;DHT22;53236;43.666;18.444;2023-02-26T03:46:37;7.20;99.90
65462;DHT22;53236;43.666;18.444;2023-02-26T03:49:08;7.20;99.90
65462;DHT22;53236;43.666;18.444;2023-02-26T03:51:36;7.10;99.90
65462;DHT22;53236;43.666;18.444;2023-02-26T03:54:19;7.10;99.90
65462;DHT22;53236;43.666;18.444;2023-02-26T03:56:47;7.10;99.90
65462;DHT22;53236;43.666;18.444;2023-02-26T03:59:14;7.10;99.90
65462;DHT22;53236;43.666;18.444;2023-02-26T04:02:30;7.20;99.90
65462;DHT22;53236;43.666;18.444;2023-02-26T04:07:09;7.20;99.90
65462;DHT22;53236;43.666;18.444;2023-02-26T04:09:36;7.20;99.90
65462;DHT22;53236;43.666;18.444;2023-02-26T04:12:02;7.20;99.90
65462;DHT22;53236;43.666;18.444;2023-02-26T04:14:28;7.20;99.90
65462;DHT22;53236;43.666;18.444;2023-02-26T04:16:53;7.20;99.90
65462;DHT22;53236;43.666;18.444;2023-02-26T04:19:19;7.10;99.90
65462;DHT22;53236;43.666;18.444;2023-02-26T04:21:45;7.10;99.90
65462;DHT22;53236;43.666;18.444;2023-02-26T04:24:11;7.20;99.90
65462;DHT22;53236;43.666;18.444;2023-02-26T04:26:37;7.20;99.90
65462;DHT22;53236;43.666;18.444;2023-02-26T04:29:02;7.20;99.90
65462;DHT22;53236;43.666;18.444;2023-02-26T04:31:29;7.10;99.90
65462;DHT22;53236;43.666;18.444;2023-02-26T04:33:55;7.10;99.90
65462;DHT22;53236;43.666;18.444;2023-02-26T04:36:20;7.10;99.90
65462;DHT22;53236;43.666;18.444;2023-02-26T04:38:46;7.20;99.90
65462;DHT22;53236;43.666;18.444;2023-02-26T04:41:12;7.10;99.90
65462;DHT22;53236;43.666;18.444;2023-02-26T04:43:37;7.10;99.90
65462;DHT22;53236;43.666;18.444;2023-02-26T04:46:03;7.10;99.90
65462;DHT22;53236;43.666;18.444;2023-02-26T04:48:29;7.10;99.90
65462;DHT22;53236;43.666;18.444;2023-02-26T04:50:55;7.10;99.90
65462;DHT22;53236;43.666;18.444;2023-02-26T04:53:20;7.20;99.90
65462;DHT22;53236;43.666;18.444;2023-02-26T04:55:47;7.20;99.90
65462;DHT22;53236;43.666;18.444;2023-02-26T04:58:13;7.20;99.90
65462;DHT22;53236;43.666;18.444;2023-02-26T05:00:39;7.20;99.90
65462;DHT22;53236;43.666;18.444;2023-02-26T05:03:05;7.20;99.90
65462;DHT22;53236;43.666;18.444;2023-02-26T05:05:31;7.20;99.90
65462;DHT22;53236;43.666;18.444;2023-02-26T05:07:57;7.20;99.90
65462;DHT22;53236;43.666;18.444;2023-02-26T05:10:23;7.20;99.90
65462;DHT22;53236;43.666;18.444;2023-02-26T05:12:49;7.20;99.90
65462;DHT22;53236;43.666;18.444;2023-02-26T05:15:15;7.10;99.90
65462;DHT22;53236;43.666;18.444;2023-02-26T05:17:41;7.20;99.90
65462;DHT22;53236;43.666;18.444;2023-02-26T05:20:07;7.20;99.90
65462;DHT22;53236;43.666;18.444;2023-02-26T05:22:35;7.00;99.90
65462;DHT22;53236;43.666;18.444;2023-02-26T05:25:01;6.80;99.90
65462;DHT22;53236;43.666;18.444;2023-02-26T05:27:29;6.60;99.90
65462;DHT22;53236;43.666;18.444;2023-02-26T05:29:55;6.30;99.90
65462;DHT22;53236;43.666;18.444;2023-02-26T05:32:20;6.10;99.90
65462;DHT22;53236;43.666;18.444;2023-02-26T05:34:46;6.00;99.90
65462;DHT22;53236;43.666;18.444;2023-02-26T05:37:12;5.90;99.90
65462;DHT22;53236;43.666;18.444;2023-02-26T05:39:37;5.80;99.90
65462;DHT22;53236;43.666;18.444;2023-02-26T05:42:06;5.70;99.90
65462;DHT22;53236;43.666;18.444;2023-02-26T05:44:32;5.60;99.90
65462;DHT22;53236;43.666;18.444;2023-02-26T05:46:58;5.60;99.90
65462;DHT22;53236;43.666;18.444;2023-02-26T05:49:23;5.40;99.90
65462;DHT22;53236;43.666;18.444;2023-02-26T05:51:49;5.30;99.90
65462;DHT22;53236;43.666;18.444;2023-02-26T05:54:15;5.20;99.90
65462;DHT22;53236;43.666;18.444;2023-02-26T05:56:40;5.10;99.90
65462;DHT22;53236;43.666;18.444;2023-02-26T05:59:06;4.90;99.90
65462;DHT22;53236;43.666;18.444;2023-02-26T06:01:32;4.70;99.90
65462;DHT22;53236;43.666;18.444;2023-02-26T06:03:58;4.40;99.90
65462;DHT22;53236;43.666;18.444;2023-02-26T06:06:24;4.10;99.90
65462;DHT22;53236;43.666;18.444;2023-02-26T06:08:51;4.00;99.90
65462;DHT22;53236;43.666;18.444;2023-02-26T06:11:17;3.80;99.90
65462;DHT22;53236;43.666;18.444;2023-02-26T06:13:42;3.60;99.90
65462;DHT22;53236;43.666;18.444;2023-02-26T06:16:08;3.40;99.90
65462;DHT22;53236;43.666;18.444;2023-02-26T06:18:34;3.30;99.90
65462;DHT22;53236;43.666;18.444;2023-02-26T06:21:00;3.10;99.90
65462;DHT22;53236;43.666;18.444;2023-02-26T06:23:26;3.00;99.90
65462;DHT22;53236;43.666;18.444;2023-02-26T06:25:52;2.90;99.90
65462;DHT22;53236;43.666;18.444;2023-02-26T06:28:19;2.70;99.90
65462;DHT22;53236;43.666;18.444;2023-02-26T06:30:45;2.70;99.90
65462;DHT22;53236;43.666;18.444;2023-02-26T06:33:11;2.60;99.90
65462;DHT22;53236;43.666;18.444;2023-02-26T06:35:37;2.50;99.90
65462;DHT22;53236;43.666;18.444;2023-02-26T06:38:02;2.50;99.90
65462;DHT22;53236;43.666;18.444;2023-02-26T06:40:28;2.50;99.90
65462;DHT22;53236;43.666;18.444;2023-02-26T06:42:55;2.40;99.90
65462;DHT22;53236;43.666;18.444;2023-02-26T06:45:21;2.40;99.90
65462;DHT22;53236;43.666;18.444;2023-02-26T06:47:49;2.30;99.90
65462;DHT22;53236;43.666;18.444;2023-02-26T06:50:15;2.20;99.90
65462;DHT22;53236;43.666;18.444;2023-02-26T06:52:41;2.00;99.90
65462;DHT22;53236;43.666;18.444;2023-02-26T06:55:07;2.00;99.90
65462;DHT22;53236;43.666;18.444;2023-02-26T06:57:33;1.90;99.90
65462;DHT22;53236;43.666;18.444;2023-02-26T06:59:58;1.80;99.90
65462;DHT22;53236;43.666;18.444;2023-02-26T07:02:25;1.80;99.90
65462;DHT22;53236;43.666;18.444;2023-02-26T07:04:51;1.70;99.90
65462;DHT22;53236;43.666;18.444;2023-02-26T07:07:17;1.70;99.90
65462;DHT22;53236;43.666;18.444;2023-02-26T07:09:43;1.60;99.90
65462;DHT22;53236;43.666;18.444;2023-02-26T07:12:08;1.50;99.90
65462;DHT22;53236;43.666;18.444;2023-02-26T07:14:34;1.50;99.90
65462;DHT22;53236;43.666;18.444;2023-02-26T07:17:01;1.50;99.90
65462;DHT22;53236;43.666;18.444;2023-02-26T07:19:26;1.60;99.90
65462;DHT22;53236;43.666;18.444;2023-02-26T07:21:52;1.50;99.90
65462;DHT22;53236;43.666;18.444;2023-02-26T07:24:20;1.50;99.90
65462;DHT22;53236;43.666;18.444;2023-02-26T07:26:45;1.40;99.90
65462;DHT22;53236;43.666;18.444;2023-02-26T07:29:11;1.30;99.90
65462;DHT22;53236;43.666;18.444;2023-02-26T07:31:37;1.20;99.90
65462;DHT22;53236;43.666;18.444;2023-02-26T07:34:03;1.30;99.90
65462;DHT22;53236;43.666;18.444;2023-02-26T07:36:28;1.20;99.90
65462;DHT22;53236;43.666;18.444;2023-02-26T07:38:54;1.20;99.90
65462;DHT22;53236;43.666;18.444;2023-02-26T07:41:20;1.20;99.90
65462;DHT22;53236;43.666;18.444;2023-02-26T07:43:45;1.20;99.90
65462;DHT22;53236;43.666;18.444;2023-02-26T07:46:11;1.20;99.90
65462;DHT22;53236;43.666;18.444;2023-02-26T07:48:37;1.20;99.90
65462;DHT22;53236;43.666;18.444;2023-02-26T07:51:03;1.20;99.90
65462;DHT22;53236;43.666;18.444;2023-02-26T07:53:29;1.20;99.90
65462;DHT22;53236;43.666;18.444;2023-02-26T07:55:55;1.20;99.90
65462;DHT22;53236;43.666;18.444;2023-02-26T07:58:21;1.10;99.90
65462;DHT22;53236;43.666;18.444;2023-02-26T08:00:46;1.10;99.90
65462;DHT22;53236;43.666;18.444;2023-02-26T08:03:13;1.10;99.90
65462;DHT22;53236;43.666;18.444;2023-02-26T08:05:39;0.90;99.90
65462;DHT22;53236;43.666;18.444;2023-02-26T08:08:05;0.90;99.90
65462;DHT22;53236;43.666;18.444;2023-02-26T08:10:31;0.90;99.90
65462;DHT22;53236;43.666;18.444;2023-02-26T08:12:57;0.90;99.90
65462;DHT22;53236;43.666;18.444;2023-02-26T08:15:22;0.90;99.90
65462;DHT22;53236;43.666;18.444;2023-02-26T08:17:51;0.80;99.90
65462;DHT22;53236;43.666;18.444;2023-02-26T08:20:17;0.80;99.90
65462;DHT22;53236;43.666;18.444;2023-02-26T08:22:43;0.90;99.90
65462;DHT22;53236;43.666;18.444;2023-02-26T08:25:09;1.00;99.90
65462;DHT22;53236;43.666;18.444;2023-02-26T08:27:34;1.00;99.90
65462;DHT22;53236;43.666;18.444;2023-02-26T08:30:00;1.10;99.90
65462;DHT22;53236;43.666;18.444;2023-02-26T08:32:26;1.20;99.90
65462;DHT22;53236;43.666;18.444;2023-02-26T08:34:52;1.10;99.90
65462;DHT22;53236;43.666;18.444;2023-02-26T08:37:18;1.10;99.90
65462;DHT22;53236;43.666;18.444;2023-02-26T08:39:47;1.10;99.90
65462;DHT22;53236;43.666;18.444;2023-02-26T08:42:12;0.90;99.90
65462;DHT22;53236;43.666;18.444;2023-02-26T08:44:41;0.90;99.90
65462;DHT22;53236;43.666;18.444;2023-02-26T08:47:07;0.90;99.90
65462;DHT22;53236;43.666;18.444;2023-02-26T08:49:33;0.90;99.90
65462;DHT22;53236;43.666;18.444;2023-02-26T08:51:59;0.90;99.90
65462;DHT22;53236;43.666;18.444;2023-02-26T08:54:25;0.90;99.90
65462;DHT22;53236;43.666;18.444;2023-02-26T08:56:51;0.90;99.90
65462;DHT22;53236;43.666;18.444;2023-02-26T08:59:20;0.90;99.90
65462;DHT22;53236;43.666;18.444;2023-02-26T09:01:46;0.90;99.90
65462;DHT22;53236;43.666;18.444;2023-02-26T09:04:12;0.90;99.90
65462;DHT22;53236;43.666;18.444;2023-02-26T09:06:37;1.00;99.90
65462;DHT22;53236;43.666;18.444;2023-02-26T09:09:03;1.00;99.90
65462;DHT22;53236;43.666;18.444;2023-02-26T09:11:29;1.00;99.90
65462;DHT22;53236;43.666;18.444;2023-02-26T09:13:55;1.10;99.90
65462;DHT22;53236;43.666;18.444;2023-02-26T09:16:23;1.10;99.90
65462;DHT22;53236;43.666;18.444;2023-02-26T09:18:49;1.20;99.90
65462;DHT22;53236;43.666;18.444;2023-02-26T09:21:15;1.40;99.90
65462;DHT22;53236;43.666;18.444;2023-02-26T09:23:40;1.50;99.90
65462;DHT22;53236;43.666;18.444;2023-02-26T09:26:06;1.60;99.90
65462;DHT22;53236;43.666;18.444;2023-02-26T09:28:33;1.50;99.90
65462;DHT22;53236;43.666;18.444;2023-02-26T09:30:59;1.50;99.90
65462;DHT22;53236;43.666;18.444;2023-02-26T09:33:25;1.30;99.90
65462;DHT22;53236;43.666;18.444;2023-02-26T09:35:51;1.20;99.90
65462;DHT22;53236;43.666;18.444;2023-02-26T09:38:18;1.20;99.90
65462;DHT22;53236;43.666;18.444;2023-02-26T09:40:45;1.20;99.90
65462;DHT22;53236;43.666;18.444;2023-02-26T09:46:04;1.20;99.90
65462;DHT22;53236;43.666;18.444;2023-02-26T09:48:31;1.20;99.90
65462;DHT22;53236;43.666;18.444;2023-02-26T09:50:58;1.20;99.90
65462;DHT22;53236;43.666;18.444;2023-02-26T09:53:34;1.10;99.90
65462;DHT22;53236;43.666;18.444;2023-02-26T09:56:23;1.10;99.90
65462;DHT22;53236;43.666;18.444;2023-02-26T09:58:50;1.20;99.90
65462;DHT22;53236;43.666;18.444;2023-02-26T10:07:39;1.30;99.90
65462;DHT22;53236;43.666;18.444;2023-02-26T10:12:44;1.20;99.90
65462;DHT22;53236;43.666;18.444;2023-02-26T10:15:26;1.20;99.90
65462;DHT22;53236;43.666;18.444;2023-02-26T10:18:07;1.20;99.90
65462;DHT22;53236;43.666;18.444;2023-02-26T10:20:39;1.10;99.90
65462;DHT22;53236;43.666;18.444;2023-02-26T10:23:15;1.10;99.90
65462;DHT22;53236;43.666;18.444;2023-02-26T10:31:00;1.20;99.90
65462;DHT22;53236;43.666;18.444;2023-02-26T10:38:41;1.20;99.90
65462;DHT22;53236;43.666;18.444;2023-02-26T10:41:12;1.10;99.90
65462;DHT22;53236;43.666;18.444;2023-02-26T10:43:41;1.00;99.90
65462;DHT22;53236;43.666;18.444;2023-02-26T10:51:43;1.00;99.90
65462;DHT22;53236;43.666;18.444;2023-02-26T10:56:39;1.00;99.90
65462;DHT22;53236;43.666;18.444;2023-02-26T10:59:05;1.10;99.90
65462;DHT22;53236;43.666;18.444;2023-02-26T11:01:31;1.20;99.90
65462;DHT22;53236;43.666;18.444;2023-02-26T11:04:10;1.30;99.90
65462;DHT22;53236;43.666;18.444;2023-02-26T11:06:45;1.30;99.90
65462;DHT22;53236;43.666;18.444;2023-02-26T11:09:21;1.00;99.90
65462;DHT22;53236;43.666;18.444;2023-02-26T11:11:54;0.80;99.90
65462;DHT22;53236;43.666;18.444;2023-02-26T11:14:21;0.80;99.90
65462;DHT22;53236;43.666;18.444;2023-02-26T11:16:51;0.90;99.90
65462;DHT22;53236;43.666;18.444;2023-02-26T11:19:22;1.00;99.90
65462;DHT22;53236;43.666;18.444;2023-02-26T11:21:50;1.20;99.90
65462;DHT22;53236;43.666;18.444;2023-02-26T11:24:22;1.40;99.90
65462;DHT22;53236;43.666;18.444;2023-02-26T11:26:57;1.60;99.90
65462;DHT22;53236;43.666;18.444;2023-02-26T11:29:24;1.70;99.90
65462;DHT22;53236;43.666;18.444;2023-02-26T11:31:55;1.70;99.90
65462;DHT22;53236;43.666;18.444;2023-02-26T11:34:24;1.80;99.90
65462;DHT22;53236;43.666;18.444;2023-02-26T11:36:54;1.90;99.90
65462;DHT22;53236;43.666;18.444;2023-02-26T11:39:26;1.90;99.90
65462;DHT22;53236;43.666;18.444;2023-02-26T11:41:56;1.80;99.90
65462;DHT22;53236;43.666;18.444;2023-02-26T11:44:36;1.70;99.90
65462;DHT22;53236;43.666;18.444;2023-02-26T11:47:14;1.50;99.90
65462;DHT22;53236;43.666;18.444;2023-02-26T11:49:44;1.30;99.90
65462;DHT22;53236;43.666;18.444;2023-02-26T11:54:37;1.50;99.90
65462;DHT22;53236;43.666;18.444;2023-02-26T11:57:16;1.40;99.90
65462;DHT22;53236;43.666;18.444;2023-02-26T11:59:46;1.50;99.90
65462;DHT22;53236;43.666;18.444;2023-02-26T12:02:14;1.70;99.90
65462;DHT22;53236;43.666;18.444;2023-02-26T12:04:42;1.70;99.90
65462;DHT22;53236;43.666;18.444;2023-02-26T12:07:14;1.70;99.90
65462;DHT22;53236;43.666;18.444;2023-02-26T12:09:41;1.60;99.90
65462;DHT22;53236;43.666;18.444;2023-02-26T12:12:13;1.60;99.90
65462;DHT22;53236;43.666;18.444;2023-02-26T12:15:04;1.60;99.90
65462;DHT22;53236;43.666;18.444;2023-02-26T12:23:54;1.20;99.90
65462;DHT22;53236;43.666;18.444;2023-02-26T12:26:39;1.20;99.90
65462;DHT22;53236;43.666;18.444;2023-02-26T12:42:48;1.60;99.90
65462;DHT22;53236;43.666;18.444;2023-02-26T12:51:38;1.50;99.90
65462;DHT22;53236;43.666;18.444;2023-02-26T12:54:11;1.50;99.90
65462;DHT22;53236;43.666;18.444;2023-02-26T13:08:48;1.80;99.90
65462;DHT22;53236;43.666;18.444;2023-02-26T13:16:52;1.30;99.90
65462;DHT22;53236;43.666;18.444;2023-02-26T13:19:45;1.20;99.90
65462;DHT22;53236;43.666;18.444;2023-02-26T13:22:34;1.10;99.90
65462;DHT22;53236;43.666;18.444;2023-02-26T13:28:11;0.90;99.90
65462;DHT22;53236;43.666;18.444;2023-02-26T13:30:46;0.80;99.90
65462;DHT22;53236;43.666;18.444;2023-02-26T13:33:19;0.80;99.90
65462;DHT22;53236;43.666;18.444;2023-02-26T13:35:47;0.80;99.90
65462;DHT22;53236;43.666;18.444;2023-02-26T13:44:03;0.80;99.90
65462;DHT22;53236;43.666;18.444;2023-02-26T13:51:44;0.60;99.90
65462;DHT22;53236;43.666;18.444;2023-02-26T14:06:51;0.90;99.90
65462;DHT22;53236;43.666;18.444;2023-02-26T14:14:44;0.80;99.90
65462;DHT22;53236;43.666;18.444;2023-02-26T14:17:49;0.80;99.90
65462;DHT22;53236;43.666;18.444;2023-02-26T14:20:20;0.70;99.90
65462;DHT22;53236;43.666;18.444;2023-02-26T14:22:51;0.70;99.90
65462;DHT22;53236;43.666;18.444;2023-02-26T14:25:31;0.80;99.90
65462;DHT22;53236;43.666;18.444;2023-02-26T14:33:31;0.90;99.90
65462;DHT22;53236;43.666;18.444;2023-02-26T14:36:04;0.80;99.90
65462;DHT22;53236;43.666;18.444;2023-02-26T14:38:34;0.80;99.90
65462;DHT22;53236;43.666;18.444;2023-02-26T14:41:17;0.70;99.90
65462;DHT22;53236;43.666;18.444;2023-02-26T14:44:16;0.60;99.90
65462;DHT22;53236;43.666;18.444;2023-02-26T14:46:41;0.60;99.90
65462;DHT22;53236;43.666;18.444;2023-02-26T14:49:17;0.50;99.90
65462;DHT22;53236;43.666;18.444;2023-02-26T15:00:15;0.40;99.90
65462;DHT22;53236;43.666;18.444;2023-02-26T15:05:40;0.40;99.90
65462;DHT22;53236;43.666;18.444;2023-02-26T15:08:15;0.40;99.90
65462;DHT22;53236;43.666;18.444;2023-02-26T15:10:47;0.40;99.90
65462;DHT22;53236;43.666;18.444;2023-02-26T15:13:29;0.40;99.90
65462;DHT22;53236;43.666;18.444;2023-02-26T15:19:05;0.40;99.90
65462;DHT22;53236;43.666;18.444;2023-02-26T15:24:17;0.30;99.90
65462;DHT22;53236;43.666;18.444;2023-02-26T15:26:55;0.20;99.90
65462;DHT22;53236;43.666;18.444;2023-02-26T15:29:27;0.20;99.90
65462;DHT22;53236;43.666;18.444;2023-02-26T15:31:57;0.20;99.90
65462;DHT22;53236;43.666;18.444;2023-02-26T15:34:25;0.20;99.90
65462;DHT22;53236;43.666;18.444;2023-02-26T15:36:52;0.20;99.90
65462;DHT22;53236;43.666;18.444;2023-02-26T15:39:21;0.20;99.90
65462;DHT22;53236;43.666;18.444;2023-02-26T15:41:49;0.10;99.90
65462;DHT22;53236;43.666;18.444;2023-02-26T15:44:20;0.10;99.90
65462;DHT22;53236;43.666;18.444;2023-02-26T15:47:00;0.10;99.90
65462;DHT22;53236;43.666;18.444;2023-02-26T15:49:35;0.00;99.90
65462;DHT22;53236;43.666;18.444;2023-02-26T15:52:04;0.10;99.90
65462;DHT22;53236;43.666;18.444;2023-02-26T15:54:43;0.00;99.90
65462;DHT22;53236;43.666;18.444;2023-02-26T15:57:10;0.00;99.90
65462;DHT22;53236;43.666;18.444;2023-02-26T15:59:42;0.00;99.90
65462;DHT22;53236;43.666;18.444;2023-02-26T16:02:12;0.00;99.90
65462;DHT22;53236;43.666;18.444;2023-02-26T16:04:39;0.00;99.90
65462;DHT22;53236;43.666;18.444;2023-02-26T16:07:05;-0.10;99.90
65462;DHT22;53236;43.666;18.444;2023-02-26T16:09:34;-0.10;99.90
65462;DHT22;53236;43.666;18.444;2023-02-26T16:12:23;0.00;99.90
65462;DHT22;53236;43.666;18.444;2023-02-26T16:15:01;0.00;99.90
65462;DHT22;53236;43.666;18.444;2023-02-26T16:17:31;-0.10;99.90
65462;DHT22;53236;43.666;18.444;2023-02-26T16:20:01;0.00;99.90
65462;DHT22;53236;43.666;18.444;2023-02-26T16:22:37;-0.10;99.90
65462;DHT22;53236;43.666;18.444;2023-02-26T16:25:39;0.00;99.90
65462;DHT22;53236;43.666;18.444;2023-02-26T16:28:13;0.00;99.90
65462;DHT22;53236;43.666;18.444;2023-02-26T16:30:43;-0.10;99.90
65462;DHT22;53236;43.666;18.444;2023-02-26T16:33:13;-0.10;99.90
65462;DHT22;53236;43.666;18.444;2023-02-26T16:35:45;-0.10;99.90
65462;DHT22;53236;43.666;18.444;2023-02-26T16:38:22;-0.10;99.90
65462;DHT22;53236;43.666;18.444;2023-02-26T16:40:56;-0.20;99.90
65462;DHT22;53236;43.666;18.444;2023-02-26T16:45:55;-0.20;99.90
65462;DHT22;53236;43.666;18.444;2023-02-26T16:48:25;-0.20;99.90
65462;DHT22;53236;43.666;18.444;2023-02-26T16:50:59;-0.20;99.90
65462;DHT22;53236;43.666;18.444;2023-02-26T16:54:14;-0.20;99.90
65462;DHT22;53236;43.666;18.444;2023-02-26T16:56:30;-0.20;99.90
65462;DHT22;53236;43.666;18.444;2023-02-26T17:01:38;-0.20;99.90
65462;DHT22;53236;43.666;18.444;2023-02-26T17:04:05;-0.20;99.90
65462;DHT22;53236;43.666;18.444;2023-02-26T17:06:32;-0.20;99.90
65462;DHT22;53236;43.666;18.444;2023-02-26T17:09:05;-0.10;99.90
65462;DHT22;53236;43.666;18.444;2023-02-26T17:11:39;-0.20;99.90
65462;DHT22;53236;43.666;18.444;2023-02-26T17:14:20;-0.20;99.90
65462;DHT22;53236;43.666;18.444;2023-02-26T17:16:48;-0.20;99.90
65462;DHT22;53236;43.666;18.444;2023-02-26T17:19:15;-0.10;99.90
65462;DHT22;53236;43.666;18.444;2023-02-26T17:21:53;-0.10;99.90
65462;DHT22;53236;43.666;18.444;2023-02-26T17:24:28;0.00;99.90
65462;DHT22;53236;43.666;18.444;2023-02-26T17:26:54;0.00;99.90
65462;DHT22;53236;43.666;18.444;2023-02-26T17:29:40;0.00;99.90
65462;DHT22;53236;43.666;18.444;2023-02-26T17:32:16;0.00;99.90
65462;DHT22;53236;43.666;18.444;2023-02-26T17:34:42;0.00;99.90
65462;DHT22;53236;43.666;18.444;2023-02-26T17:37:11;0.10;99.90
65462;DHT22;53236;43.666;18.444;2023-02-26T17:39:37;0.10;99.90
65462;DHT22;53236;43.666;18.444;2023-02-26T17:42:09;0.10;99.90
65462;DHT22;53236;43.666;18.444;2023-02-26T17:44:35;0.10;99.90
65462;DHT22;53236;43.666;18.444;2023-02-26T17:47:00;0.10;99.90
65462;DHT22;53236;43.666;18.444;2023-02-26T17:49:26;0.00;99.90
65462;DHT22;53236;43.666;18.444;2023-02-26T17:51:52;0.00;99.90
65462;DHT22;53236;43.666;18.444;2023-02-26T17:54:18;0.00;99.90
65462;DHT22;53236;43.666;18.444;2023-02-26T17:56:44;0.00;99.90
65462;DHT22;53236;43.666;18.444;2023-02-26T17:59:10;0.00;99.90
65462;DHT22;53236;43.666;18.444;2023-02-26T18:01:38;0.00;99.90
65462;DHT22;53236;43.666;18.444;2023-02-26T18:04:04;0.00;99.90
65462;DHT22;53236;43.666;18.444;2023-02-26T18:06:33;0.00;99.90
65462;DHT22;53236;43.666;18.444;2023-02-26T18:08:59;0.00;99.90
65462;DHT22;53236;43.666;18.444;2023-02-26T18:11:25;0.00;99.90
65462;DHT22;53236;43.666;18.444;2023-02-26T18:13:51;0.00;99.90
65462;DHT22;53236;43.666;18.444;2023-02-26T18:16:21;0.00;99.90
65462;DHT22;53236;43.666;18.444;2023-02-26T18:18:47;0.00;99.90
65462;DHT22;53236;43.666;18.444;2023-02-26T18:21:12;0.00;99.90
65462;DHT22;53236;43.666;18.444;2023-02-26T18:23:39;0.00;99.90
65462;DHT22;53236;43.666;18.444;2023-02-26T18:26:05;0.00;99.90
65462;DHT22;53236;43.666;18.444;2023-02-26T18:28:31;0.00;99.90
65462;DHT22;53236;43.666;18.444;2023-02-26T18:30:57;0.00;99.90
65462;DHT22;53236;43.666;18.444;2023-02-26T18:33:24;0.00;99.90
65462;DHT22;53236;43.666;18.444;2023-02-26T18:35:54;0.00;99.90
65462;DHT22;53236;43.666;18.444;2023-02-26T18:38:26;-0.10;99.90
65462;DHT22;53236;43.666;18.444;2023-02-26T18:40:52;0.00;99.90
65462;DHT22;53236;43.666;18.444;2023-02-26T18:43:19;0.00;99.90
65462;DHT22;53236;43.666;18.444;2023-02-26T18:45:47;0.00;99.90
65462;DHT22;53236;43.666;18.444;2023-02-26T18:48:16;-0.10;99.90
65462;DHT22;53236;43.666;18.444;2023-02-26T18:50:43;-0.10;99.90
65462;DHT22;53236;43.666;18.444;2023-02-26T18:53:09;-0.10;99.90
65462;DHT22;53236;43.666;18.444;2023-02-26T18:55:35;-0.20;99.90
65462;DHT22;53236;43.666;18.444;2023-02-26T18:58:01;-0.10;99.90
65462;DHT22;53236;43.666;18.444;2023-02-26T19:00:27;-0.10;99.90
65462;DHT22;53236;43.666;18.444;2023-02-26T19:02:53;-0.10;99.90
65462;DHT22;53236;43.666;18.444;2023-02-26T19:05:21;-0.10;99.90